sensor_id;sensor_type;location;lat;lon;timestamp;P1;durP1;ratioP1;P2;durP2;ratioP2
21158;SDS011;10737;45.436;4.390;2023-07-09T00:03:22;9.27;;;8.48;;
21158;SDS011;10737;45.436;4.390;2023-07-09T00:08:26;12.32;;;9.05;;
21158;SDS011;10737;45.436;4.390;2023-07-09T00:13:30;13.65;;;10.65;;
21158;SDS011;10737;45.436;4.390;2023-07-09T00:18:35;9.43;;;8.48;;
21158;SDS011;10737;45.436;4.390;2023-07-09T00:23:38;13.63;;;9.15;;
21158;SDS011;10737;45.436;4.390;2023-07-09T00:28:41;10.68;;;8.55;;
21158;SDS011;10737;45.436;4.390;2023-07-09T00:33:48;12.05;;;8.93;;
21158;SDS011;10737;45.436;4.390;2023-07-09T00:38:51;9.82;;;9.02;;
21158;SDS011;10737;45.436;4.390;2023-07-09T00:43:54;11.50;;;9.30;;
21158;SDS011;10737;45.436;4.390;2023-07-09T00:49:00;13.70;;;8.20;;
21158;SDS011;10737;45.436;4.390;2023-07-09T00:54:10;11.27;;;10.15;;
21158;SDS011;10737;45.436;4.390;2023-07-09T00:59:16;10.05;;;9.10;;
21158;SDS011;10737;45.436;4.390;2023-07-09T01:04:22;10.10;;;9.10;;
21158;SDS011;10737;45.436;4.390;2023-07-09T01:09:27;12.10;;;9.57;;
21158;SDS011;10737;45.436;4.390;2023-07-09T01:14:30;10.52;;;9.55;;
21158;SDS011;10737;45.436;4.390;2023-07-09T01:19:39;10.93;;;9.55;;
21158;SDS011;10737;45.436;4.390;2023-07-09T01:24:54;10.52;;;9.27;;
21158;SDS011;10737;45.436;4.390;2023-07-09T01:29:57;10.75;;;9.70;;
21158;SDS011;10737;45.436;4.390;2023-07-09T01:35:02;11.88;;;9.63;;
21158;SDS011;10737;45.436;4.390;2023-07-09T01:40:09;10.98;;;9.75;;
21158;SDS011;10737;45.436;4.390;2023-07-09T01:45:21;10.27;;;9.38;;
21158;SDS011;10737;45.436;4.390;2023-07-09T01:50:25;10.98;;;9.75;;
21158;SDS011;10737;45.436;4.390;2023-07-09T01:55:32;12.00;;;10.20;;
21158;SDS011;10737;45.436;4.390;2023-07-09T02:00:37;11.00;;;9.95;;
21158;SDS011;10737;45.436;4.390;2023-07-09T02:05:44;12.93;;;11.00;;
21158;SDS011;10737;45.436;4.390;2023-07-09T02:10:50;11.68;;;10.48;;
21158;SDS011;10737;45.436;4.390;2023-07-09T02:15:54;12.55;;;10.10;;
21158;SDS011;10737;45.436;4.390;2023-07-09T02:20:57;11.75;;;9.60;;
21158;SDS011;10737;45.436;4.390;2023-07-09T02:26:02;11.18;;;10.05;;
21158;SDS011;10737;45.436;4.390;2023-07-09T02:31:05;10.88;;;9.73;;
21158;SDS011;10737;45.436;4.390;2023-07-09T02:36:09;11.80;;;10.60;;
21158;SDS011;10737;45.436;4.390;2023-07-09T02:41:14;13.32;;;10.75;;
21158;SDS011;10737;45.436;4.390;2023-07-09T02:46:17;11.25;;;10.25;;
21158;SDS011;10737;45.436;4.390;2023-07-09T02:51:21;11.85;;;10.65;;
21158;SDS011;10737;45.436;4.390;2023-07-09T02:56:25;11.95;;;10.55;;
21158;SDS011;10737;45.436;4.390;2023-07-09T03:01:28;12.05;;;9.93;;
21158;SDS011;10737;45.436;4.390;2023-07-09T03:06:33;10.80;;;9.73;;
21158;SDS011;10737;45.436;4.390;2023-07-09T03:11:38;11.60;;;10.45;;
21158;SDS011;10737;45.436;4.390;2023-07-09T03:16:41;11.13;;;10.02;;
21158;SDS011;10737;45.436;4.390;2023-07-09T03:21:44;11.75;;;10.65;;
21158;SDS011;10737;45.436;4.390;2023-07-09T03:26:49;12.15;;;9.93;;
21158;SDS011;10737;45.436;4.390;2023-07-09T03:31:52;10.13;;;9.15;;
21158;SDS011;10737;45.436;4.390;2023-07-09T03:36:56;11.05;;;9.85;;
21158;SDS011;10737;45.436;4.390;2023-07-09T03:42:00;12.13;;;9.75;;
21158;SDS011;10737;45.436;4.390;2023-07-09T03:47:04;9.70;;;8.73;;
21158;SDS011;10737;45.436;4.390;2023-07-09T03:52:07;10.45;;;9.40;;
21158;SDS011;10737;45.436;4.390;2023-07-09T03:57:12;11.23;;;10.13;;
21158;SDS011;10737;45.436;4.390;2023-07-09T04:02:15;12.43;;;9.07;;
21158;SDS011;10737;45.436;4.390;2023-07-09T04:07:18;9.90;;;8.90;;
21158;SDS011;10737;45.436;4.390;2023-07-09T04:12:23;18.15;;;15.55;;
21158;SDS011;10737;45.436;4.390;2023-07-09T04:17:26;30.95;;;25.35;;
21158;SDS011;10737;45.436;4.390;2023-07-09T04:22:29;49.83;;;39.22;;
21158;SDS011;10737;45.436;4.390;2023-07-09T04:27:34;55.88;;;40.75;;
21158;SDS011;10737;45.436;4.390;2023-07-09T04:32:37;30.95;;;24.50;;
21158;SDS011;10737;45.436;4.390;2023-07-09T04:37:40;17.60;;;15.77;;
21158;SDS011;10737;45.436;4.390;2023-07-09T04:42:45;14.55;;;12.40;;
21158;SDS011;10737;45.436;4.390;2023-07-09T04:47:49;13.88;;;10.95;;
21158;SDS011;10737;45.436;4.390;2023-07-09T04:52:52;15.02;;;13.13;;
21158;SDS011;10737;45.436;4.390;2023-07-09T04:57:57;14.68;;;10.70;;
21158;SDS011;10737;45.436;4.390;2023-07-09T05:03:00;11.10;;;9.85;;
21158;SDS011;10737;45.436;4.390;2023-07-09T05:08:03;10.80;;;9.82;;
21158;SDS011;10737;45.436;4.390;2023-07-09T05:13:08;10.75;;;9.73;;
21158;SDS011;10737;45.436;4.390;2023-07-09T05:18:11;11.07;;;10.00;;
21158;SDS011;10737;45.436;4.390;2023-07-09T05:23:15;11.05;;;9.25;;
21158;SDS011;10737;45.436;4.390;2023-07-09T05:28:20;14.73;;;10.73;;
21158;SDS011;10737;45.436;4.390;2023-07-09T05:33:23;11.23;;;10.10;;
21158;SDS011;10737;45.436;4.390;2023-07-09T05:38:26;12.75;;;10.50;;
21158;SDS011;10737;45.436;4.390;2023-07-09T05:43:31;9.93;;;8.98;;
21158;SDS011;10737;45.436;4.390;2023-07-09T05:48:34;12.07;;;9.80;;
21158;SDS011;10737;45.436;4.390;2023-07-09T05:53:37;13.73;;;9.57;;
21158;SDS011;10737;45.436;4.390;2023-07-09T05:58:42;13.93;;;10.80;;
21158;SDS011;10737;45.436;4.390;2023-07-09T06:03:46;12.15;;;10.35;;
21158;SDS011;10737;45.436;4.390;2023-07-09T06:08:49;10.68;;;9.55;;
21158;SDS011;10737;45.436;4.390;2023-07-09T06:13:54;10.32;;;9.23;;
21158;SDS011;10737;45.436;4.390;2023-07-09T06:18:57;11.23;;;9.18;;
21158;SDS011;10737;45.436;4.390;2023-07-09T06:24:01;10.00;;;9.07;;
21158;SDS011;10737;45.436;4.390;2023-07-09T06:29:06;10.30;;;9.30;;
21158;SDS011;10737;45.436;4.390;2023-07-09T06:34:09;10.63;;;9.52;;
21158;SDS011;10737;45.436;4.390;2023-07-09T06:39:13;10.43;;;9.43;;
21158;SDS011;10737;45.436;4.390;2023-07-09T06:44:17;11.30;;;10.20;;
21158;SDS011;10737;45.436;4.390;2023-07-09T06:49:20;10.57;;;9.48;;
21158;SDS011;10737;45.436;4.390;2023-07-09T06:54:24;12.55;;;9.50;;
21158;SDS011;10737;45.436;4.390;2023-07-09T06:59:29;9.98;;;9.00;;
21158;SDS011;10737;45.436;4.390;2023-07-09T07:04:32;10.60;;;9.57;;
21158;SDS011;10737;45.436;4.390;2023-07-09T07:09:36;11.27;;;9.90;;
21158;SDS011;10737;45.436;4.390;2023-07-09T07:14:41;12.48;;;9.88;;
21158;SDS011;10737;45.436;4.390;2023-07-09T07:19:44;10.18;;;9.25;;
21158;SDS011;10737;45.436;4.390;2023-07-09T07:24:47;10.45;;;9.55;;
21158;SDS011;10737;45.436;4.390;2023-07-09T07:29:52;10.80;;;9.70;;
21158;SDS011;10737;45.436;4.390;2023-07-09T07:34:56;10.63;;;9.52;;
21158;SDS011;10737;45.436;4.390;2023-07-09T07:39:59;11.32;;;10.32;;
21158;SDS011;10737;45.436;4.390;2023-07-09T07:45:04;12.15;;;10.05;;
21158;SDS011;10737;45.436;4.390;2023-07-09T07:50:09;12.45;;;10.30;;
21158;SDS011;10737;45.436;4.390;2023-07-09T07:55:12;9.80;;;9.00;;
21158;SDS011;10737;45.436;4.390;2023-07-09T08:00:19;11.32;;;10.23;;
21158;SDS011;10737;45.436;4.390;2023-07-09T08:05:23;12.45;;;10.18;;
21158;SDS011;10737;45.436;4.390;2023-07-09T08:10:27;14.50;;;11.20;;
21158;SDS011;10737;45.436;4.390;2023-07-09T08:15:31;14.20;;;12.23;;
21158;SDS011;10737;45.436;4.390;2023-07-09T08:20:34;12.05;;;10.68;;
21158;SDS011;10737;45.436;4.390;2023-07-09T08:25:38;13.00;;;11.63;;
21158;SDS011;10737;45.436;4.390;2023-07-09T08:30:43;11.48;;;10.20;;
21158;SDS011;10737;45.436;4.390;2023-07-09T08:35:48;12.15;;;11.02;;
21158;SDS011;10737;45.436;4.390;2023-07-09T08:40:54;11.13;;;10.18;;
21158;SDS011;10737;45.436;4.390;2023-07-09T08:46:02;11.52;;;10.10;;
21158;SDS011;10737;45.436;4.390;2023-07-09T08:51:09;11.98;;;10.35;;
21158;SDS011;10737;45.436;4.390;2023-07-09T08:56:15;11.77;;;9.75;;
21158;SDS011;10737;45.436;4.390;2023-07-09T09:01:21;13.15;;;11.30;;
21158;SDS011;10737;45.436;4.390;2023-07-09T09:06:27;10.93;;;9.75;;
21158;SDS011;10737;45.436;4.390;2023-07-09T09:11:37;11.50;;;10.30;;
21158;SDS011;10737;45.436;4.390;2023-07-09T09:16:45;10.73;;;9.70;;
21158;SDS011;10737;45.436;4.390;2023-07-09T09:21:50;12.10;;;10.90;;
21158;SDS011;10737;45.436;4.390;2023-07-09T09:26:58;11.68;;;9.93;;
21158;SDS011;10737;45.436;4.390;2023-07-09T09:32:12;12.10;;;10.93;;
21158;SDS011;10737;45.436;4.390;2023-07-09T09:37:24;11.35;;;10.20;;
21158;SDS011;10737;45.436;4.390;2023-07-09T09:42:29;11.73;;;10.57;;
21158;SDS011;10737;45.436;4.390;2023-07-09T09:47:34;11.98;;;9.90;;
21158;SDS011;10737;45.436;4.390;2023-07-09T09:52:37;15.75;;;11.70;;
21158;SDS011;10737;45.436;4.390;2023-07-09T09:57:46;11.52;;;9.07;;
21158;SDS011;10737;45.436;4.390;2023-07-09T10:02:52;10.80;;;9.77;;
21158;SDS011;10737;45.436;4.390;2023-07-09T10:07:59;13.68;;;12.32;;
21158;SDS011;10737;45.436;4.390;2023-07-09T10:13:07;10.55;;;9.48;;
21158;SDS011;10737;45.436;4.390;2023-07-09T10:18:16;10.68;;;9.70;;
21158;SDS011;10737;45.436;4.390;2023-07-09T10:23:26;11.95;;;10.73;;
21158;SDS011;10737;45.436;4.390;2023-07-09T10:28:33;12.10;;;10.77;;
21158;SDS011;10737;45.436;4.390;2023-07-09T10:33:52;10.82;;;9.70;;
21158;SDS011;10737;45.436;4.390;2023-07-09T10:38:58;11.70;;;10.50;;
21158;SDS011;10737;45.436;4.390;2023-07-09T10:44:05;12.70;;;9.90;;
21158;SDS011;10737;45.436;4.390;2023-07-09T10:49:12;10.05;;;9.13;;
21158;SDS011;10737;45.436;4.390;2023-07-09T10:54:18;13.00;;;9.35;;
21158;SDS011;10737;45.436;4.390;2023-07-09T10:59:26;9.23;;;8.13;;
21158;SDS011;10737;45.436;4.390;2023-07-09T11:04:33;12.15;;;8.07;;
21158;SDS011;10737;45.436;4.390;2023-07-09T11:09:38;9.75;;;7.80;;
21158;SDS011;10737;45.436;4.390;2023-07-09T11:14:45;10.32;;;8.25;;
21158;SDS011;10737;45.436;4.390;2023-07-09T11:19:55;13.45;;;9.18;;
21158;SDS011;10737;45.436;4.390;2023-07-09T11:25:05;9.45;;;8.55;;
21158;SDS011;10737;45.436;4.390;2023-07-09T11:30:18;9.05;;;7.82;;
21158;SDS011;10737;45.436;4.390;2023-07-09T11:35:24;9.32;;;8.32;;
21158;SDS011;10737;45.436;4.390;2023-07-09T11:40:27;11.98;;;8.50;;
21158;SDS011;10737;45.436;4.390;2023-07-09T11:45:31;15.38;;;8.93;;
21158;SDS011;10737;45.436;4.390;2023-07-09T11:50:40;9.07;;;8.18;;
21158;SDS011;10737;45.436;4.390;2023-07-09T11:55:46;10.27;;;8.38;;
21158;SDS011;10737;45.436;4.390;2023-07-09T12:00:50;10.55;;;8.35;;
21158;SDS011;10737;45.436;4.390;2023-07-09T12:05:56;10.00;;;8.52;;
21158;SDS011;10737;45.436;4.390;2023-07-09T12:10:59;9.80;;;8.60;;
21158;SDS011;10737;45.436;4.390;2023-07-09T12:16:03;9.10;;;8.18;;
21158;SDS011;10737;45.436;4.390;2023-07-09T12:21:09;9.70;;;8.52;;
21158;SDS011;10737;45.436;4.390;2023-07-09T12:26:13;9.98;;;8.27;;
21158;SDS011;10737;45.436;4.390;2023-07-09T12:31:16;8.52;;;7.85;;
21158;SDS011;10737;45.436;4.390;2023-07-09T12:36:21;9.65;;;8.00;;
21158;SDS011;10737;45.436;4.390;2023-07-09T12:41:27;12.18;;;8.75;;
21158;SDS011;10737;45.436;4.390;2023-07-09T12:46:31;10.98;;;8.50;;
21158;SDS011;10737;45.436;4.390;2023-07-09T12:51:36;11.13;;;8.65;;
21158;SDS011;10737;45.436;4.390;2023-07-09T12:56:41;8.18;;;7.38;;
21158;SDS011;10737;45.436;4.390;2023-07-09T13:01:49;15.68;;;8.52;;
21158;SDS011;10737;45.436;4.390;2023-07-09T13:06:54;10.75;;;9.65;;
21158;SDS011;10737;45.436;4.390;2023-07-09T13:12:03;8.98;;;8.13;;
21158;SDS011;10737;45.436;4.390;2023-07-09T13:17:07;9.48;;;8.40;;
21158;SDS011;10737;45.436;4.390;2023-07-09T13:22:12;10.52;;;8.60;;
21158;SDS011;10737;45.436;4.390;2023-07-09T13:27:16;9.00;;;8.20;;
21158;SDS011;10737;45.436;4.390;2023-07-09T13:32:20;8.88;;;8.05;;
21158;SDS011;10737;45.436;4.390;2023-07-09T13:37:25;8.35;;;7.57;;
21158;SDS011;10737;45.436;4.390;2023-07-09T13:42:28;9.77;;;8.75;;
21158;SDS011;10737;45.436;4.390;2023-07-09T13:47:31;9.45;;;8.27;;
21158;SDS011;10737;45.436;4.390;2023-07-09T13:52:36;11.65;;;9.02;;
21158;SDS011;10737;45.436;4.390;2023-07-09T13:57:39;9.73;;;8.80;;
21158;SDS011;10737;45.436;4.390;2023-07-09T14:02:43;10.93;;;8.65;;
21158;SDS011;10737;45.436;4.390;2023-07-09T14:07:48;13.52;;;12.27;;
21158;SDS011;10737;45.436;4.390;2023-07-09T14:12:52;10.00;;;9.00;;
21158;SDS011;10737;45.436;4.390;2023-07-09T14:17:55;10.52;;;9.13;;
21158;SDS011;10737;45.436;4.390;2023-07-09T14:23:00;10.52;;;9.48;;
21158;SDS011;10737;45.436;4.390;2023-07-09T14:28:04;11.32;;;10.27;;
21158;SDS011;10737;45.436;4.390;2023-07-09T14:33:12;10.25;;;9.30;;
21158;SDS011;10737;45.436;4.390;2023-07-09T14:38:18;11.38;;;10.23;;
21158;SDS011;10737;45.436;4.390;2023-07-09T14:43:21;9.70;;;8.98;;
21158;SDS011;10737;45.436;4.390;2023-07-09T14:48:25;9.48;;;8.80;;
21158;SDS011;10737;45.436;4.390;2023-07-09T14:53:29;10.43;;;9.55;;
21158;SDS011;10737;45.436;4.390;2023-07-09T14:58:33;9.77;;;8.82;;
21158;SDS011;10737;45.436;4.390;2023-07-09T15:03:36;10.13;;;9.27;;
21158;SDS011;10737;45.436;4.390;2023-07-09T15:08:41;14.80;;;9.95;;
21158;SDS011;10737;45.436;4.390;2023-07-09T15:13:44;9.35;;;8.55;;
21158;SDS011;10737;45.436;4.390;2023-07-09T15:18:48;11.32;;;9.13;;
21158;SDS011;10737;45.436;4.390;2023-07-09T15:23:52;10.18;;;9.27;;
21158;SDS011;10737;45.436;4.390;2023-07-09T15:28:56;12.77;;;8.80;;
21158;SDS011;10737;45.436;4.390;2023-07-09T15:33:59;8.82;;;8.13;;
21158;SDS011;10737;45.436;4.390;2023-07-09T15:39:03;11.95;;;10.32;;
21158;SDS011;10737;45.436;4.390;2023-07-09T15:44:09;10.77;;;9.65;;
21158;SDS011;10737;45.436;4.390;2023-07-09T15:49:12;9.27;;;8.50;;
21158;SDS011;10737;45.436;4.390;2023-07-09T15:54:18;9.32;;;8.43;;
21158;SDS011;10737;45.436;4.390;2023-07-09T15:59:27;10.68;;;9.63;;
21158;SDS011;10737;45.436;4.390;2023-07-09T16:04:31;13.05;;;11.77;;
21158;SDS011;10737;45.436;4.390;2023-07-09T16:09:36;11.45;;;8.32;;
21158;SDS011;10737;45.436;4.390;2023-07-09T16:14:42;9.70;;;7.93;;
21158;SDS011;10737;45.436;4.390;2023-07-09T16:19:45;14.75;;;9.30;;
21158;SDS011;10737;45.436;4.390;2023-07-09T16:24:50;11.27;;;9.48;;
21158;SDS011;10737;45.436;4.390;2023-07-09T16:29:53;10.07;;;9.07;;
21158;SDS011;10737;45.436;4.390;2023-07-09T16:34:56;15.18;;;13.65;;
21158;SDS011;10737;45.436;4.390;2023-07-09T16:40:02;11.48;;;10.32;;
21158;SDS011;10737;45.436;4.390;2023-07-09T16:45:06;12.52;;;10.05;;
21158;SDS011;10737;45.436;4.390;2023-07-09T16:50:12;11.52;;;9.18;;
21158;SDS011;10737;45.436;4.390;2023-07-09T16:55:19;10.38;;;9.45;;
21158;SDS011;10737;45.436;4.390;2023-07-09T17:00:25;10.70;;;9.73;;
21158;SDS011;10737;45.436;4.390;2023-07-09T17:05:28;9.63;;;8.65;;
21158;SDS011;10737;45.436;4.390;2023-07-09T17:10:33;11.50;;;10.38;;
21158;SDS011;10737;45.436;4.390;2023-07-09T17:15:38;12.30;;;11.10;;
21158;SDS011;10737;45.436;4.390;2023-07-09T17:20:42;10.98;;;10.07;;
21158;SDS011;10737;45.436;4.390;2023-07-09T17:25:47;13.48;;;12.38;;
21158;SDS011;10737;45.436;4.390;2023-07-09T17:30:50;11.82;;;9.00;;
21158;SDS011;10737;45.436;4.390;2023-07-09T17:35:55;9.48;;;8.68;;
21158;SDS011;10737;45.436;4.390;2023-07-09T17:41:00;12.00;;;9.38;;
21158;SDS011;10737;45.436;4.390;2023-07-09T17:46:04;13.38;;;11.98;;
21158;SDS011;10737;45.436;4.390;2023-07-09T17:51:07;9.77;;;8.85;;
21158;SDS011;10737;45.436;4.390;2023-07-09T17:56:16;9.23;;;8.43;;
21158;SDS011;10737;45.436;4.390;2023-07-09T18:01:22;17.33;;;15.60;;
21158;SDS011;10737;45.436;4.390;2023-07-09T18:06:25;11.55;;;10.40;;
21158;SDS011;10737;45.436;4.390;2023-07-09T18:11:30;10.55;;;9.57;;
21158;SDS011;10737;45.436;4.390;2023-07-09T18:16:39;14.38;;;11.30;;
21158;SDS011;10737;45.436;4.390;2023-07-09T18:21:42;11.85;;;9.20;;
21158;SDS011;10737;45.436;4.390;2023-07-09T18:26:47;12.13;;;11.05;;
21158;SDS011;10737;45.436;4.390;2023-07-09T18:31:50;11.45;;;10.38;;
21158;SDS011;10737;45.436;4.390;2023-07-09T18:36:54;12.80;;;10.82;;
21158;SDS011;10737;45.436;4.390;2023-07-09T18:41:58;12.27;;;11.13;;
21158;SDS011;10737;45.436;4.390;2023-07-09T18:47:02;11.65;;;10.50;;
21158;SDS011;10737;45.436;4.390;2023-07-09T18:52:08;10.93;;;9.77;;
21158;SDS011;10737;45.436;4.390;2023-07-09T18:57:14;13.07;;;10.70;;
21158;SDS011;10737;45.436;4.390;2023-07-09T19:02:19;19.05;;;13.02;;
21158;SDS011;10737;45.436;4.390;2023-07-09T19:07:23;9.60;;;8.55;;
21158;SDS011;10737;45.436;4.390;2023-07-09T19:12:28;13.85;;;9.60;;
21158;SDS011;10737;45.436;4.390;2023-07-09T19:17:32;12.02;;;9.60;;
21158;SDS011;10737;45.436;4.390;2023-07-09T19:22:36;12.32;;;11.00;;
21158;SDS011;10737;45.436;4.390;2023-07-09T19:27:41;10.07;;;9.18;;
21158;SDS011;10737;45.436;4.390;2023-07-09T19:32:45;12.13;;;9.77;;
21158;SDS011;10737;45.436;4.390;2023-07-09T19:37:50;10.45;;;9.55;;
21158;SDS011;10737;45.436;4.390;2023-07-09T19:42:55;13.88;;;10.38;;
21158;SDS011;10737;45.436;4.390;2023-07-09T19:47:58;10.77;;;9.77;;
21158;SDS011;10737;45.436;4.390;2023-07-09T19:53:16;11.57;;;10.48;;
21158;SDS011;10737;45.436;4.390;2023-07-09T19:58:21;13.73;;;9.48;;
21158;SDS011;10737;45.436;4.390;2023-07-09T20:03:25;10.88;;;9.98;;
21158;SDS011;10737;45.436;4.390;2023-07-09T20:08:29;12.38;;;10.30;;
21158;SDS011;10737;45.436;4.390;2023-07-09T20:13:35;11.27;;;10.27;;
21158;SDS011;10737;45.436;4.390;2023-07-09T20:18:39;11.55;;;8.68;;
21158;SDS011;10737;45.436;4.390;2023-07-09T20:23:42;10.50;;;9.13;;
21158;SDS011;10737;45.436;4.390;2023-07-09T20:28:47;11.02;;;10.02;;
21158;SDS011;10737;45.436;4.390;2023-07-09T20:33:54;13.88;;;11.65;;
21158;SDS011;10737;45.436;4.390;2023-07-09T20:38:58;13.82;;;9.95;;
21158;SDS011;10737;45.436;4.390;2023-07-09T20:44:03;19.85;;;17.90;;
21158;SDS011;10737;45.436;4.390;2023-07-09T20:49:18;13.15;;;11.95;;
21158;SDS011;10737;45.436;4.390;2023-07-09T20:54:23;16.23;;;14.35;;
21158;SDS011;10737;45.436;4.390;2023-07-09T20:59:27;12.85;;;11.60;;
21158;SDS011;10737;45.436;4.390;2023-07-09T21:04:32;13.27;;;12.02;;
21158;SDS011;10737;45.436;4.390;2023-07-09T21:09:36;11.93;;;11.02;;
21158;SDS011;10737;45.436;4.390;2023-07-09T21:14:41;14.00;;;12.73;;
21158;SDS011;10737;45.436;4.390;2023-07-09T21:19:45;12.27;;;11.05;;
21158;SDS011;10737;45.436;4.390;2023-07-09T21:24:49;17.88;;;16.08;;
21158;SDS011;10737;45.436;4.390;2023-07-09T21:29:54;12.52;;;11.30;;
21158;SDS011;10737;45.436;4.390;2023-07-09T21:34:57;12.15;;;11.02;;
21158;SDS011;10737;45.436;4.390;2023-07-09T21:40:01;11.88;;;10.88;;
21158;SDS011;10737;45.436;4.390;2023-07-09T21:45:06;10.70;;;9.82;;
21158;SDS011;10737;45.436;4.390;2023-07-09T21:50:10;17.35;;;15.85;;
21158;SDS011;10737;45.436;4.390;2023-07-09T21:55:17;12.48;;;9.48;;
21158;SDS011;10737;45.436;4.390;2023-07-09T22:00:23;15.63;;;11.38;;
21158;SDS011;10737;45.436;4.390;2023-07-09T22:05:27;11.00;;;10.07;;
21158;SDS011;10737;45.436;4.390;2023-07-09T22:10:32;9.80;;;8.90;;
21158;SDS011;10737;45.436;4.390;2023-07-09T22:15:37;12.90;;;10.70;;
21158;SDS011;10737;45.436;4.390;2023-07-09T22:20:41;27.92;;;23.02;;
21158;SDS011;10737;45.436;4.390;2023-07-09T22:25:44;11.00;;;10.00;;
21158;SDS011;10737;45.436;4.390;2023-07-09T22:30:49;11.85;;;10.85;;
21158;SDS011;10737;45.436;4.390;2023-07-09T22:35:52;10.75;;;9.75;;
21158;SDS011;10737;45.436;4.390;2023-07-09T22:40:58;15.35;;;13.07;;
21158;SDS011;10737;45.436;4.390;2023-07-09T22:46:03;11.30;;;10.25;;
21158;SDS011;10737;45.436;4.390;2023-07-09T22:51:07;12.80;;;11.50;;
21158;SDS011;10737;45.436;4.390;2023-07-09T22:56:10;12.27;;;10.18;;
21158;SDS011;10737;45.436;4.390;2023-07-09T23:01:15;10.73;;;9.63;;
21158;SDS011;10737;45.436;4.390;2023-07-09T23:06:21;11.57;;;9.63;;
21158;SDS011;10737;45.436;4.390;2023-07-09T23:11:25;11.98;;;10.88;;
21158;SDS011;10737;45.436;4.390;2023-07-09T23:16:31;11.15;;;10.18;;
21158;SDS011;10737;45.436;4.390;2023-07-09T23:21:34;10.55;;;9.80;;
21158;SDS011;10737;45.436;4.390;2023-07-09T23:26:39;11.23;;;10.30;;
21158;SDS011;10737;45.436;4.390;2023-07-09T23:31:49;10.52;;;9.68;;
21158;SDS011;10737;45.436;4.390;2023-07-09T23:36:52;10.95;;;9.85;;
21158;SDS011;10737;45.436;4.390;2023-07-09T23:41:56;14.30;;;10.50;;
21158;SDS011;10737;45.436;4.390;2023-07-09T23:47:01;10.27;;;9.32;;
21158;SDS011;10737;45.436;4.390;2023-07-09T23:52:04;10.23;;;9.43;;
21158;SDS011;10737;45.436;4.390;2023-07-09T23:57:07;10.07;;;9.10;;
